Terminal Aerodrome Forecast
Issued by NWS

Home | Current Version | Previous Version | Graphics & Text | Print | Product List | Glossary Off
Versions: 1 2 3 4 5 6 7 8 9 10 11 12 13 14 15 16 17

385
FTUS43 KOAX 271904 AAA
TAFCDR
TAF AMD
KCDR 271904Z 2719/2818 15010G21KT P6SM VCTS SCT030CB BKN100
     FM272100 17015G22KT P6SM BKN200
     FM280200 12008KT P6SM BKN250=

USA.gov is the U.S. government's official web portal to all federal, state and local government web resources and services.